createdAt,value
2023-04-09T00:00:01.185Z,6.63
2023-04-09T00:01:32.729Z,6.60
2023-04-09T00:03:04.350Z,6.56
2023-04-09T00:04:37.274Z,6.56
2023-04-09T00:06:08.849Z,6.53
2023-04-09T00:07:41.399Z,6.52
2023-04-09T00:09:14.109Z,6.52
2023-04-09T00:10:45.688Z,6.52
2023-04-09T00:12:17.198Z,6.52
2023-04-09T00:13:52.400Z,6.52
2023-04-09T00:15:31.052Z,6.56
2023-04-09T00:17:03.606Z,6.58
2023-04-09T00:18:35.628Z,6.54
2023-04-09T00:20:10.386Z,6.54
2023-04-09T00:21:42.454Z,6.55
2023-04-09T00:23:19.750Z,6.59
2023-04-09T00:24:51.981Z,6.57
2023-04-09T00:26:24.114Z,6.57
2023-04-09T00:27:55.823Z,6.56
2023-04-09T00:29:27.549Z,6.54
2023-04-09T00:30:59.421Z,6.50
2023-04-09T00:32:31.500Z,6.47
2023-04-09T00:34:05.556Z,6.49
2023-04-09T00:35:38.135Z,6.49
2023-04-09T00:37:11.821Z,6.50
2023-04-09T00:38:44.523Z,6.47
2023-04-09T00:40:16.311Z,6.43
2023-04-09T00:41:47.862Z,6.41
2023-04-09T00:43:19.333Z,6.38
2023-04-09T00:44:50.885Z,6.37
2023-04-09T00:46:22.350Z,6.34
2023-04-09T00:47:53.917Z,6.31
2023-04-09T00:49:26.573Z,6.32
2023-04-09T00:50:58.990Z,6.31
2023-04-09T00:52:31.525Z,6.27
2023-04-09T00:54:05.897Z,6.26
2023-04-09T00:55:37.561Z,6.27
2023-04-09T00:57:12.150Z,6.28
2023-04-09T00:58:45.518Z,6.32
2023-04-09T01:02:03.276Z,6.37
2023-04-09T01:03:34.996Z,6.36
2023-04-09T01:05:07.238Z,6.36
2023-04-09T01:06:38.739Z,6.38
2023-04-09T01:08:23.815Z,6.38
2023-04-09T01:10:01.559Z,6.36
2023-04-09T01:11:46.605Z,6.35
2023-04-09T01:13:31.027Z,6.36
2023-04-09T01:15:05.046Z,6.36
2023-04-09T01:16:38.463Z,6.34
2023-04-09T01:18:20.516Z,6.33
2023-04-09T01:20:00.376Z,6.31
2023-04-09T01:21:33.639Z,6.30
2023-04-09T01:23:11.226Z,6.25
2023-04-09T01:24:47.435Z,6.18
2023-04-09T01:26:22.094Z,6.12
2023-04-09T01:28:06.234Z,6.11
2023-04-09T01:29:45.716Z,6.00
2023-04-09T01:31:23.640Z,5.91
2023-04-09T01:32:57.741Z,5.82
2023-04-09T01:34:29.580Z,5.79
2023-04-09T01:36:01.236Z,5.75
2023-04-09T01:37:32.802Z,5.74
2023-04-09T01:39:04.438Z,5.73
2023-04-09T01:40:36.557Z,5.73
2023-04-09T01:42:11.268Z,5.71
2023-04-09T01:43:42.874Z,5.71
2023-04-09T01:45:14.374Z,5.72
2023-04-09T01:46:46.795Z,5.72
2023-04-09T01:48:18.291Z,5.72
2023-04-09T01:49:49.825Z,5.73
2023-04-09T01:51:21.302Z,5.74
2023-04-09T01:52:52.903Z,5.76
2023-04-09T01:54:24.353Z,5.79
2023-04-09T01:55:58.110Z,5.83
2023-04-09T01:57:32.226Z,5.84
2023-04-09T01:59:05.697Z,5.87
2023-04-09T02:00:46.409Z,5.90
2023-04-09T02:02:22.920Z,5.95
2023-04-09T02:03:57.485Z,5.93
2023-04-09T02:05:32.223Z,5.92
2023-04-09T02:07:04.924Z,5.92
2023-04-09T02:08:37.577Z,5.94
2023-04-09T02:10:09.722Z,5.95
2023-04-09T02:11:41.889Z,5.94
2023-04-09T02:13:13.524Z,5.97
2023-04-09T02:14:47.577Z,5.92
2023-04-09T02:16:19.128Z,5.87
2023-04-09T02:17:50.777Z,5.84
2023-04-09T02:19:22.288Z,5.80
2023-04-09T02:20:54.267Z,5.74
2023-04-09T02:22:28.721Z,5.66
2023-04-09T02:24:00.284Z,5.63
2023-04-09T02:25:32.368Z,5.61
2023-04-09T02:27:04.107Z,5.62
2023-04-09T02:28:35.929Z,5.60
2023-04-09T02:30:08.081Z,5.58
2023-04-09T02:31:39.598Z,5.59
2023-04-09T02:33:11.430Z,5.57
2023-04-09T02:34:43.508Z,5.56
2023-04-09T02:36:15.078Z,5.51
2023-04-09T02:37:46.803Z,5.53
2023-04-09T02:39:18.550Z,5.56
2023-04-09T02:40:50.297Z,5.56
2023-04-09T02:42:22.271Z,5.58
2023-04-09T02:43:54.346Z,5.59
2023-04-09T02:45:26.083Z,5.61
2023-04-09T02:46:57.709Z,5.62
2023-04-09T02:48:29.182Z,5.65
2023-04-09T02:50:00.684Z,5.64
2023-04-09T02:51:32.566Z,5.65
2023-04-09T02:53:04.235Z,5.65
2023-04-09T02:54:37.846Z,5.64
2023-04-09T02:56:09.654Z,5.64
2023-04-09T02:57:41.732Z,5.66
2023-04-09T02:59:13.702Z,5.65
2023-04-09T03:00:45.663Z,5.66
2023-04-09T03:02:17.775Z,5.68
2023-04-09T03:03:49.592Z,5.61
2023-04-09T03:05:21.184Z,5.57
2023-04-09T03:06:55.684Z,5.56
2023-04-09T03:08:52.229Z,5.53
2023-04-09T03:10:28.217Z,5.50
2023-04-09T03:12:02.100Z,5.47
2023-04-09T03:13:33.899Z,5.46
2023-04-09T03:15:05.760Z,5.44
2023-04-09T03:16:37.209Z,5.40
2023-04-09T03:18:08.732Z,5.34
2023-04-09T03:19:40.288Z,5.34
2023-04-09T03:21:14.743Z,5.29
2023-04-09T03:22:46.649Z,5.25
2023-04-09T03:24:18.252Z,5.25
2023-04-09T03:25:49.753Z,5.25
2023-04-09T03:27:24.064Z,5.25
2023-04-09T03:28:55.883Z,5.28
2023-04-09T03:30:30.095Z,5.31
2023-04-09T03:32:01.922Z,5.28
2023-04-09T03:33:33.339Z,5.24
2023-04-09T03:35:05.119Z,5.22
2023-04-09T03:36:36.644Z,5.22
2023-04-09T03:38:08.595Z,5.17
2023-04-09T03:39:40.191Z,5.16
2023-04-09T03:41:11.870Z,5.18
2023-04-09T03:42:43.593Z,5.16
2023-04-09T03:44:15.771Z,5.14
2023-04-09T03:45:48.013Z,5.16
2023-04-09T03:47:22.603Z,5.18
2023-04-09T03:48:54.395Z,5.19
2023-04-09T03:50:26.198Z,5.21
2023-04-09T03:51:57.889Z,5.20
2023-04-09T03:53:29.530Z,5.19
2023-04-09T03:55:01.298Z,5.21
2023-04-09T03:56:32.959Z,5.23
2023-04-09T03:58:04.458Z,5.23
2023-04-09T03:59:36.072Z,5.27
2023-04-09T04:01:07.733Z,5.29
2023-04-09T04:02:39.354Z,5.35
2023-04-09T04:04:11.089Z,5.37
2023-04-09T04:05:42.575Z,5.40
2023-04-09T04:07:14.103Z,5.41
2023-04-09T04:08:45.604Z,5.40
2023-04-09T04:10:17.118Z,5.45
2023-04-09T04:11:48.657Z,5.49
2023-04-09T04:13:20.441Z,5.52
2023-04-09T04:14:58.254Z,5.54
2023-04-09T04:16:36.251Z,5.51
2023-04-09T04:23:35.424Z,5.67
2023-04-09T04:25:07.280Z,5.66
2023-04-09T04:26:39.700Z,5.68
2023-04-09T04:28:11.254Z,5.68
2023-04-09T04:29:45.430Z,5.66
2023-04-09T04:31:17.243Z,5.64
2023-04-09T04:32:48.986Z,5.63
2023-04-09T04:34:23.309Z,5.65
2023-04-09T04:36:05.693Z,5.70
2023-04-09T04:37:39.466Z,5.73
2023-04-09T04:39:13.201Z,5.73
2023-04-09T04:40:47.695Z,5.74
2023-04-09T04:42:25.397Z,5.76
2023-04-09T04:44:07.779Z,5.81
2023-04-09T04:45:48.456Z,5.83
2023-04-09T04:47:23.489Z,5.87
2023-04-09T04:48:55.288Z,5.90
2023-04-09T04:50:26.855Z,5.90
2023-04-09T04:51:58.349Z,5.93
2023-04-09T04:53:30.375Z,5.96
2023-04-09T04:55:02.030Z,6.00
2023-04-09T04:56:33.650Z,6.02
2023-04-09T04:58:05.409Z,6.06
2023-04-09T04:59:37.469Z,6.08
2023-04-09T05:01:09.288Z,6.08
2023-04-09T05:02:41.181Z,6.05
2023-04-09T05:04:12.730Z,6.03
2023-04-09T05:05:45.843Z,6.04
2023-04-09T05:07:17.785Z,6.05
2023-04-09T05:08:50.066Z,6.11
2023-04-09T05:10:21.950Z,6.15
2023-04-09T05:11:59.430Z,6.25
2023-04-09T05:13:44.329Z,6.28
2023-04-09T05:15:16.172Z,6.26
2023-04-09T05:16:47.802Z,6.24
2023-04-09T05:18:19.378Z,6.28
2023-04-09T05:19:54.339Z,6.29
2023-04-09T05:21:26.307Z,6.31
2023-04-09T05:23:00.704Z,6.36
2023-04-09T05:24:33.538Z,6.43
2023-04-09T05:26:07.224Z,6.48
2023-04-09T05:27:39.754Z,6.49
2023-04-09T05:29:13.938Z,6.49
2023-04-09T05:30:48.667Z,6.47
2023-04-09T05:32:20.445Z,6.41
2023-04-09T05:33:53.522Z,6.35
2023-04-09T05:35:26.862Z,6.31
2023-04-09T05:36:59.423Z,6.31
2023-04-09T05:38:31.422Z,6.36
2023-04-09T05:40:05.381Z,6.40
2023-04-09T05:41:39.900Z,6.42
2023-04-09T05:43:14.232Z,6.40
2023-04-09T05:44:46.504Z,6.47
2023-04-09T05:46:18.457Z,6.53
2023-04-09T05:47:50.408Z,6.52
2023-04-09T05:52:03.421Z,6.51
2023-04-09T05:53:41.893Z,6.59
2023-04-09T05:55:19.878Z,6.67
2023-04-09T05:56:54.271Z,6.78
2023-04-09T05:58:32.800Z,6.92
2023-04-09T06:00:05.407Z,7.06
2023-04-09T06:01:37.238Z,7.21
2023-04-09T06:03:12.764Z,7.35
2023-04-09T06:04:44.712Z,7.43
2023-04-09T06:06:17.992Z,7.54
2023-04-09T06:07:50.915Z,7.61
2023-04-09T06:09:46.546Z,7.67
2023-04-09T06:11:25.388Z,7.75
2023-04-09T06:13:00.571Z,7.84
2023-04-09T06:14:37.929Z,7.92
2023-04-09T06:16:16.003Z,8.03
2023-04-09T06:17:56.518Z,8.13
2023-04-09T06:19:32.325Z,8.22
2023-04-09T06:21:10.626Z,8.32
2023-04-09T06:22:50.325Z,8.42
2023-04-09T06:24:25.717Z,8.56
2023-04-09T06:26:10.583Z,8.68
2023-04-09T06:27:48.306Z,8.79
2023-04-09T06:29:32.538Z,8.92
2023-04-09T06:31:08.662Z,9.07
2023-04-09T06:32:47.273Z,9.19
2023-04-09T06:34:23.000Z,9.26
2023-04-09T06:35:56.546Z,9.35
2023-04-09T06:37:28.293Z,9.48
2023-04-09T06:39:00.340Z,9.62
2023-04-09T06:40:32.209Z,9.77
2023-04-09T06:42:04.163Z,9.94
2023-04-09T06:43:37.035Z,10.17
2023-04-09T06:45:09.167Z,10.31
2023-04-09T06:46:40.766Z,10.47
2023-04-09T06:48:12.447Z,10.68
2023-04-09T06:49:44.012Z,10.93
2023-04-09T06:51:15.588Z,11.11
2023-04-09T06:52:47.411Z,11.24
2023-04-09T06:54:19.226Z,11.29
2023-04-09T06:55:51.377Z,11.33
2023-04-09T06:57:34.461Z,11.20
2023-04-09T06:59:06.355Z,11.14
2023-04-09T07:00:37.941Z,11.17
2023-04-09T07:02:10.251Z,11.19
2023-04-09T07:03:42.408Z,11.19
2023-04-09T07:05:16.580Z,11.20
2023-04-09T07:06:48.370Z,11.23
2023-04-09T07:08:19.844Z,11.24
2023-04-09T07:09:54.540Z,11.31
2023-04-09T07:11:26.591Z,11.23
2023-04-09T07:12:58.409Z,11.22
2023-04-09T07:14:30.775Z,11.32
2023-04-09T07:16:02.858Z,11.47
2023-04-09T07:17:34.648Z,11.51
2023-04-09T07:19:08.050Z,11.51
2023-04-09T07:20:44.564Z,11.40
2023-04-09T07:22:16.513Z,11.37
2023-04-09T07:23:48.207Z,11.34
2023-04-09T07:25:20.000Z,11.27
2023-04-09T07:26:52.633Z,11.26
2023-04-09T07:28:24.567Z,11.27
2023-04-09T07:29:56.877Z,11.26
2023-04-09T07:31:28.514Z,11.36
2023-04-09T07:33:00.516Z,11.43
2023-04-09T07:34:32.120Z,11.58
2023-04-09T07:36:03.868Z,11.73
2023-04-09T07:37:46.343Z,11.79
2023-04-09T07:39:33.290Z,11.80
2023-04-09T07:41:06.347Z,11.76
2023-04-09T07:43:06.974Z,11.75
2023-04-09T07:44:40.250Z,11.70
2023-04-09T07:46:12.042Z,11.69
2023-04-09T07:47:43.921Z,11.72
2023-04-09T07:49:17.330Z,11.62
2023-04-09T07:50:50.018Z,11.60
2023-04-09T07:52:21.785Z,11.55
2023-04-09T07:53:53.449Z,11.52
2023-04-09T07:58:06.119Z,11.51
2023-04-09T07:59:37.878Z,11.58
2023-04-09T08:01:09.603Z,11.61
2023-04-09T08:02:42.653Z,11.60
2023-04-09T08:04:14.671Z,11.63
2023-04-09T08:05:46.589Z,11.59
2023-04-09T08:07:18.388Z,11.59
2023-04-09T08:08:52.869Z,11.71
2023-04-09T08:10:33.779Z,11.79
2023-04-09T08:12:08.180Z,11.82
2023-04-09T08:13:42.799Z,11.81
2023-04-09T08:15:15.485Z,11.77
2023-04-09T08:16:48.974Z,11.84
2023-04-09T08:18:21.552Z,11.88
2023-04-09T08:19:58.934Z,11.83
2023-04-09T08:21:35.222Z,11.79
2023-04-09T08:23:10.526Z,11.83
2023-04-09T08:24:45.393Z,11.83
2023-04-09T08:28:46.833Z,11.78
2023-04-09T08:30:19.087Z,11.77
2023-04-09T08:31:50.762Z,11.69
2023-04-09T08:33:22.514Z,11.65
2023-04-09T08:34:54.179Z,11.68
2023-04-09T08:36:26.674Z,11.72
2023-04-09T08:37:59.029Z,11.74
2023-04-09T08:39:30.672Z,11.88
2023-04-09T08:41:02.600Z,12.00
2023-04-09T08:42:34.630Z,12.11
2023-04-09T08:44:08.773Z,12.25
2023-04-09T08:45:45.468Z,12.25
2023-04-09T08:47:30.888Z,12.21
2023-04-09T08:49:09.067Z,12.37
2023-04-09T08:50:49.265Z,12.52
2023-04-09T08:52:22.200Z,12.50
2023-04-09T08:53:57.083Z,12.48
2023-04-09T08:55:28.849Z,12.41
2023-04-09T08:57:00.489Z,12.39
2023-04-09T08:58:32.118Z,12.39
2023-04-09T09:00:04.704Z,12.51
2023-04-09T09:01:36.709Z,12.67
2023-04-09T09:03:11.901Z,12.76
2023-04-09T09:07:17.583Z,12.79
2023-04-09T09:09:07.957Z,12.77
2023-04-09T09:10:43.479Z,12.81
2023-04-09T09:12:29.237Z,12.79
2023-04-09T09:14:04.779Z,12.80
2023-04-09T09:15:39.344Z,12.81
2023-04-09T09:17:14.448Z,12.74
2023-04-09T09:18:50.881Z,12.66
2023-04-09T09:20:29.478Z,12.59
2023-04-09T09:22:05.921Z,12.46
2023-04-09T09:23:45.582Z,12.34
2023-04-09T09:25:23.208Z,12.26
2023-04-09T09:27:00.530Z,12.20
2023-04-09T09:28:34.912Z,12.24
2023-04-09T09:30:13.440Z,12.24
2023-04-09T09:31:54.359Z,12.22
2023-04-09T09:33:31.066Z,12.24
2023-04-09T09:35:15.604Z,12.16
2023-04-09T09:36:47.558Z,12.15
2023-04-09T09:38:19.263Z,12.21
2023-04-09T09:39:50.830Z,12.19
2023-04-09T09:41:22.574Z,12.14
2023-04-09T09:43:00.472Z,12.13
2023-04-09T09:44:32.858Z,12.21
2023-04-09T09:46:04.485Z,12.21
2023-04-09T09:47:36.759Z,12.18
2023-04-09T09:49:08.524Z,12.22
2023-04-09T09:50:42.017Z,12.20
2023-04-09T09:52:13.728Z,12.17
2023-04-09T09:53:47.109Z,12.11
2023-04-09T09:55:20.093Z,12.09
2023-04-09T09:56:51.921Z,12.22
2023-04-09T09:58:25.046Z,12.30
2023-04-09T10:00:00.993Z,12.34
2023-04-09T10:01:32.875Z,12.44
2023-04-09T10:03:08.860Z,12.42
2023-04-09T10:04:41.815Z,12.44
2023-04-09T10:06:15.375Z,12.54
2023-04-09T10:07:50.266Z,12.65
2023-04-09T10:09:22.068Z,12.72
2023-04-09T10:10:53.724Z,12.71
2023-04-09T10:12:25.395Z,12.62
2023-04-09T10:13:57.926Z,12.55
2023-04-09T10:15:31.458Z,12.54
2023-04-09T10:17:04.353Z,12.53
2023-04-09T10:18:36.176Z,12.60
2023-04-09T10:20:08.179Z,12.68
2023-04-09T10:21:48.645Z,12.69
2023-04-09T10:23:22.472Z,12.66
2023-04-09T10:24:54.261Z,12.62
2023-04-09T10:26:27.957Z,12.63
2023-04-09T10:28:00.367Z,12.60
2023-04-09T10:29:32.347Z,12.58
2023-04-09T10:31:07.810Z,12.57
2023-04-09T10:32:40.123Z,12.58
2023-04-09T10:34:11.836Z,12.52
2023-04-09T10:35:44.177Z,12.48
2023-04-09T10:37:17.187Z,12.47
2023-04-09T10:38:48.868Z,12.31
2023-04-09T10:40:22.821Z,12.23
2023-04-09T10:41:54.701Z,12.19
2023-04-09T10:43:27.215Z,12.15
2023-04-09T10:45:06.391Z,12.11
2023-04-09T10:46:38.184Z,12.09
2023-04-09T10:48:14.392Z,12.15
2023-04-09T10:49:46.509Z,12.16
2023-04-09T10:51:22.165Z,12.17
2023-04-09T10:52:54.499Z,12.20
2023-04-09T10:54:38.008Z,12.16
2023-04-09T10:56:14.939Z,12.13
2023-04-09T10:57:46.656Z,12.13
2023-04-09T10:59:18.531Z,12.11
2023-04-09T11:00:50.890Z,12.13
2023-04-09T11:02:32.201Z,12.21
2023-04-09T11:04:10.550Z,12.21
2023-04-09T11:05:42.274Z,12.17
2023-04-09T11:07:13.825Z,12.20
2023-04-09T11:08:47.431Z,12.29
2023-04-09T11:10:20.038Z,12.33
2023-04-09T11:11:54.548Z,12.38
2023-04-09T11:13:26.250Z,12.38
2023-04-09T11:14:58.004Z,12.36
2023-04-09T11:16:30.095Z,12.44
2023-04-09T11:18:02.419Z,12.45
2023-04-09T11:19:34.129Z,12.44
2023-04-09T11:21:06.043Z,12.40
2023-04-09T11:22:37.513Z,12.44
2023-04-09T11:24:09.218Z,12.47
2023-04-09T11:25:40.777Z,12.45
2023-04-09T11:27:12.698Z,12.48
2023-04-09T11:28:45.924Z,12.51
2023-04-09T11:30:17.667Z,12.50
2023-04-09T11:31:49.427Z,12.51
2023-04-09T11:33:21.452Z,12.44
2023-04-09T11:34:53.050Z,12.43
2023-04-09T11:36:24.881Z,12.44
2023-04-09T11:37:56.656Z,12.35
2023-04-09T11:39:28.584Z,12.27
2023-04-09T11:41:01.464Z,12.23
2023-04-09T11:42:33.114Z,12.17
2023-04-09T11:44:08.197Z,12.16
2023-04-09T11:45:44.388Z,12.11
2023-04-09T11:47:19.808Z,12.02
2023-04-09T11:48:51.799Z,12.03
2023-04-09T11:50:23.594Z,12.08
2023-04-09T11:51:55.153Z,12.06
2023-04-09T11:53:32.110Z,11.97
2023-04-09T11:55:04.802Z,11.91
2023-04-09T11:56:36.959Z,11.87
2023-04-09T11:58:12.561Z,11.86
2023-04-09T11:59:48.683Z,11.87
2023-04-09T12:01:21.508Z,11.87
2023-04-09T12:03:02.010Z,11.87
2023-04-09T12:04:34.461Z,11.90
2023-04-09T12:06:07.368Z,12.00
2023-04-09T12:07:39.607Z,12.07
2023-04-09T12:09:14.388Z,12.10
2023-04-09T12:10:46.490Z,12.09
2023-04-09T12:12:18.561Z,12.09
2023-04-09T12:13:50.444Z,12.13
2023-04-09T12:15:22.890Z,12.15
2023-04-09T12:16:55.313Z,12.16
2023-04-09T12:18:27.028Z,12.21
2023-04-09T12:20:02.355Z,12.27
2023-04-09T12:21:55.828Z,12.28
2023-04-09T12:23:28.089Z,12.33
2023-04-09T12:24:59.844Z,12.35
2023-04-09T12:26:31.563Z,12.40
2023-04-09T12:28:04.116Z,12.48
2023-04-09T12:29:36.211Z,12.50
2023-04-09T12:31:10.274Z,12.57
2023-04-09T12:32:44.995Z,12.66
2023-04-09T12:34:16.712Z,12.71
2023-04-09T12:35:48.468Z,12.74
2023-04-09T12:37:20.184Z,12.62
2023-04-09T12:38:52.654Z,12.59
2023-04-09T12:40:24.684Z,12.55
2023-04-09T12:41:57.969Z,12.58
2023-04-09T12:43:29.666Z,12.50
2023-04-09T12:45:02.087Z,12.45
2023-04-09T12:46:33.929Z,12.44
2023-04-09T12:48:06.109Z,12.46
2023-04-09T12:49:39.095Z,12.46
2023-04-09T12:51:12.269Z,12.47
2023-04-09T12:52:44.431Z,12.50
2023-04-09T12:54:16.436Z,12.49
2023-04-09T12:55:48.457Z,12.48
2023-04-09T12:57:20.264Z,12.40
2023-04-09T12:58:52.711Z,12.34
2023-04-09T13:00:24.911Z,12.32
2023-04-09T13:01:56.980Z,12.39
2023-04-09T13:03:29.484Z,12.38
2023-04-09T13:05:01.405Z,12.40
2023-04-09T13:06:33.407Z,12.44
2023-04-09T13:08:05.344Z,12.51
2023-04-09T13:09:37.004Z,12.50
2023-04-09T13:11:08.556Z,12.55
2023-04-09T13:12:40.393Z,12.63
2023-04-09T13:14:15.035Z,12.70
2023-04-09T13:15:46.620Z,12.76
2023-04-09T13:17:18.540Z,12.78
2023-04-09T13:18:50.266Z,12.79
2023-04-09T13:20:22.121Z,12.78
2023-04-09T13:21:53.767Z,12.80
2023-04-09T13:23:25.491Z,12.87
2023-04-09T13:24:57.582Z,12.87
2023-04-09T13:26:30.496Z,12.83
2023-04-09T13:28:02.226Z,12.80
2023-04-09T13:29:34.289Z,12.68
2023-04-09T13:31:06.212Z,12.62
2023-04-09T13:32:38.739Z,12.58
2023-04-09T13:34:10.904Z,12.61
2023-04-09T13:35:42.621Z,12.61
2023-04-09T13:37:14.504Z,12.62
2023-04-09T13:38:46.479Z,12.59
2023-04-09T13:40:18.382Z,12.54
2023-04-09T13:41:50.009Z,12.48
2023-04-09T13:43:21.679Z,12.43
2023-04-09T13:44:54.001Z,12.42
2023-04-09T13:46:26.223Z,12.43
2023-04-09T13:47:57.959Z,12.41
2023-04-09T13:49:31.115Z,12.33
2023-04-09T13:51:03.112Z,12.35
2023-04-09T13:52:34.822Z,12.38
2023-04-09T13:54:08.206Z,12.36
2023-04-09T13:55:39.924Z,12.32
2023-04-09T13:57:11.758Z,12.35
2023-04-09T13:58:43.947Z,12.35
2023-04-09T14:00:15.728Z,12.29
2023-04-09T14:01:47.714Z,12.29
2023-04-09T14:03:19.606Z,12.32
2023-04-09T14:04:51.411Z,12.31
2023-04-09T14:06:23.180Z,12.32
2023-04-09T14:07:54.806Z,12.37
2023-04-09T14:09:26.860Z,12.31
2023-04-09T14:10:58.767Z,12.33
2023-04-09T14:12:30.942Z,12.42
2023-04-09T14:14:02.667Z,12.46
2023-04-09T14:15:35.350Z,12.54
2023-04-09T14:17:07.074Z,12.63
2023-04-09T14:18:40.130Z,12.62
2023-04-09T14:20:11.921Z,12.48
2023-04-09T14:21:43.965Z,12.28
2023-04-09T14:23:15.989Z,12.19
2023-04-09T14:24:47.843Z,12.16
2023-04-09T14:26:21.674Z,12.10
2023-04-09T14:27:55.501Z,12.00
2023-04-09T14:29:27.249Z,11.96
2023-04-09T14:30:59.934Z,11.92
2023-04-09T14:32:31.845Z,11.84
2023-04-09T14:34:03.782Z,11.77
2023-04-09T14:35:35.761Z,11.69
2023-04-09T14:37:08.083Z,11.63
2023-04-09T14:38:39.743Z,11.64
2023-04-09T14:40:11.516Z,11.67
2023-04-09T14:41:43.350Z,11.74
2023-04-09T14:43:15.235Z,11.76
2023-04-09T14:44:46.781Z,11.73
2023-04-09T14:46:20.368Z,11.71
2023-04-09T14:47:51.995Z,11.72
2023-04-09T14:49:23.892Z,11.75
2023-04-09T14:50:55.814Z,11.74
2023-04-09T14:52:31.091Z,11.71
2023-04-09T14:54:02.846Z,11.72
2023-04-09T14:55:34.661Z,11.73
2023-04-09T14:57:07.169Z,11.80
2023-04-09T14:58:39.012Z,11.92
2023-04-09T15:00:11.557Z,12.02
2023-04-09T15:01:43.167Z,12.16
2023-04-09T15:03:15.043Z,12.22
2023-04-09T15:04:47.341Z,12.20
2023-04-09T15:06:19.030Z,12.15
2023-04-09T15:07:50.676Z,12.08
2023-04-09T15:09:22.331Z,12.03
2023-04-09T15:10:53.912Z,12.05
2023-04-09T15:12:26.263Z,12.00
2023-04-09T15:13:58.156Z,12.00
2023-04-09T15:15:29.690Z,11.96
2023-04-09T15:17:01.296Z,11.92
2023-04-09T15:18:33.550Z,11.88
2023-04-09T15:20:05.396Z,11.86
2023-04-09T15:21:37.022Z,11.90
2023-04-09T15:23:08.982Z,11.96
2023-04-09T15:24:41.255Z,11.98
2023-04-09T15:26:12.798Z,11.99
2023-04-09T15:27:44.366Z,11.94
2023-04-09T15:29:15.975Z,11.94
2023-04-09T15:30:47.547Z,11.85
2023-04-09T15:32:19.501Z,11.74
2023-04-09T15:33:51.682Z,11.61
2023-04-09T15:35:29.770Z,11.50
2023-04-09T15:37:02.044Z,11.45
2023-04-09T15:38:33.733Z,11.35
2023-04-09T15:40:05.523Z,11.35
2023-04-09T15:41:37.482Z,11.36
2023-04-09T15:43:09.218Z,11.33
2023-04-09T15:44:41.585Z,11.32
2023-04-09T15:46:15.669Z,11.29
2023-04-09T15:47:47.909Z,11.24
2023-04-09T15:49:19.797Z,11.33
2023-04-09T15:50:52.262Z,11.34
2023-04-09T15:52:24.313Z,11.33
2023-04-09T15:53:56.020Z,11.36
2023-04-09T15:55:27.870Z,11.42
2023-04-09T15:56:59.501Z,11.43
2023-04-09T15:58:31.349Z,11.44
2023-04-09T16:00:02.930Z,11.41
2023-04-09T16:01:36.003Z,11.35
2023-04-09T16:03:07.775Z,11.35
2023-04-09T16:04:39.463Z,11.36
2023-04-09T16:06:13.504Z,11.32
2023-04-09T16:07:45.353Z,11.33
2023-04-09T16:09:17.163Z,11.39
2023-04-09T16:10:49.130Z,11.45
2023-04-09T16:12:20.926Z,11.41
2023-04-09T16:13:52.748Z,11.39
2023-04-09T16:15:24.458Z,11.41
2023-04-09T16:16:56.272Z,11.44
2023-04-09T16:18:27.950Z,11.46
2023-04-09T16:19:59.682Z,11.50
2023-04-09T16:21:32.415Z,11.54
2023-04-09T16:23:04.048Z,11.55
2023-04-09T16:24:35.793Z,11.49
2023-04-09T16:26:07.453Z,11.44
2023-04-09T16:27:38.990Z,11.47
2023-04-09T16:29:10.749Z,11.43
2023-04-09T16:30:42.904Z,11.37
2023-04-09T16:32:15.226Z,11.28
2023-04-09T16:33:46.885Z,11.20
2023-04-09T16:35:18.993Z,11.18
2023-04-09T16:36:51.664Z,11.17
2023-04-09T16:38:24.854Z,11.14
2023-04-09T16:39:57.849Z,11.19
2023-04-09T16:41:29.764Z,11.12
2023-04-09T16:43:02.357Z,11.05
2023-04-09T16:44:34.090Z,11.04
2023-04-09T16:46:07.522Z,11.04
2023-04-09T16:47:39.183Z,11.05
2023-04-09T16:49:10.944Z,11.07
2023-04-09T16:50:43.189Z,11.04
2023-04-09T16:52:14.878Z,11.03
2023-04-09T16:53:47.267Z,11.06
2023-04-09T16:55:19.481Z,11.13
2023-04-09T16:56:51.377Z,11.20
2023-04-09T16:58:23.099Z,11.29
2023-04-09T16:59:54.773Z,11.33
2023-04-09T17:01:26.438Z,11.34
2023-04-09T17:02:58.139Z,11.35
2023-04-09T17:04:29.971Z,11.36
2023-04-09T17:06:02.036Z,11.37
2023-04-09T17:07:33.665Z,11.38
2023-04-09T17:09:06.587Z,11.37
2023-04-09T17:10:38.377Z,11.39
2023-04-09T17:12:12.880Z,11.45
2023-04-09T17:13:44.901Z,11.50
2023-04-09T17:15:17.359Z,11.51
2023-04-09T17:16:49.520Z,11.55
2023-04-09T17:18:21.412Z,11.52
2023-04-09T17:19:53.714Z,11.49
2023-04-09T17:21:26.540Z,11.47
2023-04-09T17:22:59.489Z,11.45
2023-04-09T17:24:31.127Z,11.43
2023-04-09T17:26:02.729Z,11.42
2023-04-09T17:27:34.410Z,11.39
2023-04-09T17:29:05.980Z,11.38
2023-04-09T17:30:37.640Z,11.37
2023-04-09T17:32:09.310Z,11.40
2023-04-09T17:33:41.946Z,11.41
2023-04-09T17:35:13.566Z,11.44
2023-04-09T17:36:49.819Z,11.49
2023-04-09T17:38:22.160Z,11.50
2023-04-09T17:39:54.040Z,11.44
2023-04-09T17:41:26.558Z,11.40
2023-04-09T17:42:58.113Z,11.40
2023-04-09T17:44:31.685Z,11.40
2023-04-09T17:46:03.491Z,11.35
2023-04-09T17:47:35.143Z,11.33
2023-04-09T17:49:07.187Z,11.32
2023-04-09T17:50:39.147Z,11.35
2023-04-09T17:52:10.842Z,11.37
2023-04-09T17:53:42.527Z,11.44
2023-04-09T17:55:14.262Z,11.45
2023-04-09T17:56:46.258Z,11.45
2023-04-09T17:58:18.032Z,11.47
2023-04-09T17:59:49.673Z,11.43
2023-04-09T18:01:21.561Z,11.40
2023-04-09T18:02:54.196Z,11.37
2023-04-09T18:04:26.598Z,11.38
2023-04-09T18:06:00.760Z,11.38
2023-04-09T18:07:35.564Z,11.40
2023-04-09T18:09:07.826Z,11.38
2023-04-09T18:10:39.664Z,11.37
2023-04-09T18:12:11.533Z,11.36
2023-04-09T18:13:43.183Z,11.34
2023-04-09T18:15:15.536Z,11.34
2023-04-09T18:16:47.682Z,11.29
2023-04-09T18:18:19.276Z,11.25
2023-04-09T18:19:53.293Z,11.23
2023-04-09T18:21:24.955Z,11.24
2023-04-09T18:22:56.668Z,11.22
2023-04-09T18:24:29.544Z,11.26
2023-04-09T18:26:01.321Z,11.27
2023-04-09T18:27:32.958Z,11.27
2023-04-09T18:29:04.606Z,11.27
2023-04-09T18:30:37.639Z,11.25
2023-04-09T18:32:09.528Z,11.20
2023-04-09T18:33:41.248Z,11.19
2023-04-09T18:35:13.115Z,11.19
2023-04-09T18:36:45.079Z,11.19
2023-04-09T18:38:17.805Z,11.23
2023-04-09T18:39:49.890Z,11.22
2023-04-09T18:41:22.756Z,11.23
2023-04-09T18:42:54.459Z,11.20
2023-04-09T18:44:26.303Z,11.19
2023-04-09T18:45:58.612Z,11.18
2023-04-09T18:47:30.581Z,11.18
2023-04-09T18:49:02.178Z,11.16
2023-04-09T18:50:33.798Z,11.19
2023-04-09T18:52:09.346Z,11.21
2023-04-09T18:53:41.787Z,11.19
2023-04-09T18:55:13.899Z,11.18
2023-04-09T18:56:46.485Z,11.17
2023-04-09T18:58:18.775Z,11.16
2023-04-09T18:59:50.391Z,11.14
2023-04-09T19:01:23.126Z,11.13
2023-04-09T19:02:55.103Z,11.13
2023-04-09T19:04:35.318Z,11.11
2023-04-09T19:06:10.706Z,11.11
2023-04-09T19:07:42.284Z,11.11
2023-04-09T19:09:13.948Z,11.07
2023-04-09T19:10:47.819Z,11.10
2023-04-09T19:12:19.397Z,11.08
2023-04-09T19:13:51.516Z,11.08
2023-04-09T19:15:23.462Z,11.05
2023-04-09T19:16:55.103Z,11.02
2023-04-09T19:18:26.945Z,11.01
2023-04-09T19:19:58.469Z,11.03
2023-04-09T19:21:30.139Z,11.05
2023-04-09T19:23:01.897Z,11.10
2023-04-09T19:24:33.720Z,11.11
2023-04-09T19:26:05.647Z,11.09
2023-04-09T19:27:37.287Z,11.12
2023-04-09T19:29:09.539Z,11.06
2023-04-09T19:30:41.436Z,11.00
2023-04-09T19:32:13.484Z,10.90
2023-04-09T19:33:45.218Z,10.88
2023-04-09T19:35:17.443Z,10.79
2023-04-09T19:36:49.031Z,10.74
2023-04-09T19:38:20.685Z,10.70
2023-04-09T19:39:53.103Z,10.68
2023-04-09T19:41:24.638Z,10.64
2023-04-09T19:42:56.401Z,10.61
2023-04-09T19:44:28.049Z,10.59
2023-04-09T19:46:01.271Z,10.57
2023-04-09T19:47:34.926Z,10.60
2023-04-09T19:49:06.651Z,10.64
2023-04-09T19:50:39.433Z,10.57
2023-04-09T19:52:11.172Z,10.51
2023-04-09T19:53:44.169Z,10.48
2023-04-09T19:55:16.556Z,10.47
2023-04-09T19:56:48.156Z,10.43
2023-04-09T19:58:20.286Z,10.40
2023-04-09T19:59:52.877Z,10.37
2023-04-09T20:01:24.589Z,10.39
2023-04-09T20:02:57.474Z,10.42
2023-04-09T20:04:31.204Z,10.36
2023-04-09T20:06:12.105Z,10.31
2023-04-09T20:07:44.425Z,10.28
2023-04-09T20:09:17.377Z,10.28
2023-04-09T20:10:50.052Z,10.31
2023-04-09T20:12:23.833Z,10.28
2023-04-09T20:13:57.225Z,10.28
2023-04-09T20:15:29.230Z,10.23
2023-04-09T20:17:01.173Z,10.22
2023-04-09T20:18:33.030Z,10.21
2023-04-09T20:20:05.152Z,10.15
2023-04-09T20:21:37.408Z,10.11
2023-04-09T20:23:08.906Z,10.08
2023-04-09T20:24:41.116Z,10.07
2023-04-09T20:26:13.714Z,10.08
2023-04-09T20:27:45.337Z,10.08
2023-04-09T20:29:17.275Z,10.07